createdAt,value
2018-08-19T01:31:20.147Z,1020.43
2018-08-19T01:31:20.719Z,1020.43
2018-08-19T01:31:21.319Z,1020.46
2018-08-19T01:31:21.920Z,1020.45
2018-08-19T01:31:22.519Z,1020.43
2018-08-19T01:31:23.124Z,1020.45
2018-08-19T01:31:23.718Z,1020.42
2018-08-19T01:31:24.317Z,1020.44
2018-08-19T01:32:17.786Z,1020.45
2018-08-19T01:32:18.362Z,1020.45
2018-08-19T01:32:18.960Z,1020.43
2018-08-19T01:32:19.562Z,1020.43
2018-08-19T01:32:20.161Z,1020.44
2018-08-19T01:32:20.761Z,1020.46
2018-08-19T01:32:21.359Z,1020.45
2018-08-19T01:32:21.958Z,1020.45
2018-08-19T01:33:15.425Z,1020.45
2018-08-19T01:33:15.997Z,1020.46
2018-08-19T01:33:16.596Z,1020.48
2018-08-19T01:33:17.195Z,1020.42
2018-08-19T01:33:17.795Z,1020.46
2018-08-19T01:33:18.397Z,1020.44
2018-08-19T01:33:18.996Z,1020.43
2018-08-19T01:33:19.596Z,1020.43
2018-08-19T01:34:14.054Z,1020.46
2018-08-19T01:34:14.626Z,1020.43
2018-08-19T01:34:15.224Z,1020.43
2018-08-19T01:34:15.826Z,1020.44
2018-08-19T01:34:16.426Z,1020.45
2018-08-19T01:34:17.025Z,1020.44
2018-08-19T01:34:17.627Z,1020.47
2018-08-19T01:34:18.223Z,1020.44
2018-08-19T01:35:12.682Z,1020.46
2018-08-19T01:35:13.255Z,1020.44
2018-08-19T01:35:13.855Z,1020.44
2018-08-19T01:35:14.459Z,1020.42
2018-08-19T01:35:15.054Z,1020.45
2018-08-19T01:35:15.655Z,1020.42
2018-08-19T01:35:16.256Z,1020.39
2018-08-19T01:35:16.853Z,1020.43
2018-08-19T01:36:11.316Z,1020.43
2018-08-19T01:36:11.886Z,1020.47
2018-08-19T01:36:12.486Z,1020.43
2018-08-19T01:36:13.086Z,1020.40
2018-08-19T01:36:13.685Z,1020.38
2018-08-19T01:36:14.285Z,1020.44
2018-08-19T01:36:14.885Z,1020.44
2018-08-19T01:36:15.487Z,1020.41
2018-08-19T01:37:08.953Z,1020.41
2018-08-19T01:37:09.528Z,1020.40
2018-08-19T01:37:10.124Z,1020.43
2018-08-19T01:37:10.728Z,1020.42
2018-08-19T01:37:11.324Z,1020.36
2018-08-19T01:37:11.925Z,1020.42
2018-08-19T01:37:12.527Z,1020.41
2018-08-19T01:37:13.124Z,1020.43
2018-08-19T01:38:06.596Z,1020.40
2018-08-19T01:38:07.167Z,1020.39
2018-08-19T01:38:07.767Z,1020.38
2018-08-19T01:38:08.366Z,1020.41
2018-08-19T01:38:08.968Z,1020.40
2018-08-19T01:38:09.569Z,1020.42
2018-08-19T01:38:10.166Z,1020.40
2018-08-19T01:38:10.764Z,1020.39
2018-08-19T01:39:05.228Z,1020.44
2018-08-19T01:39:05.801Z,1020.40
2018-08-19T01:39:06.399Z,1020.44
2018-08-19T01:39:06.999Z,1020.42
2018-08-19T01:39:07.599Z,1020.41
2018-08-19T01:39:08.202Z,1020.46
2018-08-19T01:39:08.798Z,1020.43
2018-08-19T01:39:09.398Z,1020.44
2018-08-19T01:40:04.363Z,1020.42
2018-08-19T01:40:04.933Z,1020.43
2018-08-19T01:40:05.533Z,1020.41
2018-08-19T01:40:06.134Z,1020.43
2018-08-19T01:40:06.733Z,1020.44
2018-08-19T01:40:07.333Z,1020.45
2018-08-19T01:40:07.932Z,1020.47
2018-08-19T01:41:20.751Z,1020.44
2018-08-19T01:41:21.326Z,1020.44
2018-08-19T01:41:21.922Z,1020.45
2018-08-19T01:41:22.522Z,1020.46
2018-08-19T01:41:23.122Z,1020.45
2018-08-19T01:41:23.724Z,1020.44
2018-08-19T01:41:24.323Z,1020.45
2018-08-19T01:41:24.922Z,1020.45
2018-08-19T01:42:19.383Z,1020.47
2018-08-19T01:42:19.957Z,1020.45
2018-08-19T01:42:20.557Z,1020.45
2018-08-19T01:42:21.156Z,1020.46
2018-08-19T01:42:21.755Z,1020.47
2018-08-19T01:42:22.355Z,1020.46
2018-08-19T01:42:22.956Z,1020.45
2018-08-19T01:42:23.556Z,1020.44
2018-08-19T01:43:17.029Z,1020.47
2018-08-19T01:43:17.600Z,1020.49
2018-08-19T01:43:18.199Z,1020.47
2018-08-19T01:43:18.799Z,1020.47
2018-08-19T01:43:19.399Z,1020.49
2018-08-19T01:43:20.000Z,1020.54
2018-08-19T01:43:20.599Z,1020.51
2018-08-19T01:43:21.198Z,1020.48
2018-08-19T01:44:16.160Z,1020.52
2018-08-19T01:44:16.737Z,1020.51
2018-08-19T01:44:17.333Z,1020.50
2018-08-19T01:44:17.938Z,1020.46
2018-08-19T01:44:18.536Z,1020.47
2018-08-19T01:44:19.133Z,1020.46
2018-08-19T01:44:19.733Z,1020.48
2018-08-19T01:45:13.203Z,1020.48
2018-08-19T01:45:13.778Z,1020.46
2018-08-19T01:45:14.384Z,1020.48
2018-08-19T01:45:14.980Z,1020.49
2018-08-19T01:45:15.577Z,1020.47
2018-08-19T01:45:16.177Z,1020.49
2018-08-19T01:45:16.783Z,1020.49
2018-08-19T01:45:17.374Z,1020.42
2018-08-19T01:46:10.849Z,1020.49
2018-08-19T01:46:11.421Z,1020.49
2018-08-19T01:46:12.019Z,1020.46
2018-08-19T01:46:12.622Z,1020.45
2018-08-19T01:46:13.221Z,1020.48
2018-08-19T01:46:13.820Z,1020.44
2018-08-19T01:46:14.419Z,1020.47
2018-08-19T01:46:15.021Z,1020.48
2018-08-19T01:47:09.481Z,1020.46
2018-08-19T01:47:10.055Z,1020.45
2018-08-19T01:47:10.654Z,1020.45
2018-08-19T01:47:11.259Z,1020.47
2018-08-19T01:47:11.854Z,1020.49
2018-08-19T01:47:12.455Z,1020.46
2018-08-19T01:47:13.054Z,1020.48
2018-08-19T01:47:13.654Z,1020.48
2018-08-19T01:48:07.127Z,1020.48
2018-08-19T01:48:07.699Z,1020.49
2018-08-19T01:48:08.301Z,1020.48
2018-08-19T01:48:08.903Z,1020.48
2018-08-19T01:48:09.501Z,1020.47
2018-08-19T01:48:10.099Z,1020.48
2018-08-19T01:48:10.701Z,1020.46
2018-08-19T01:48:11.300Z,1020.47
2018-08-19T01:49:05.763Z,1020.49
2018-08-19T01:49:06.338Z,1020.48
2018-08-19T01:49:06.937Z,1020.47
2018-08-19T01:49:07.541Z,1020.47
2018-08-19T01:49:08.136Z,1020.49
2018-08-19T01:49:08.735Z,1020.46
2018-08-19T01:49:09.335Z,1020.48
2018-08-19T01:49:09.936Z,1020.47
2018-08-19T01:50:04.400Z,1020.50
2018-08-19T01:50:04.973Z,1020.51
2018-08-19T01:50:05.572Z,1020.49
2018-08-19T01:50:06.171Z,1020.48
2018-08-19T01:50:06.771Z,1020.51
2018-08-19T01:50:07.375Z,1020.49
2018-08-19T01:50:07.973Z,1020.49
2018-08-19T01:50:08.572Z,1020.48
2018-08-19T01:51:03.034Z,1020.47
2018-08-19T01:51:03.607Z,1020.47
2018-08-19T01:51:04.209Z,1020.47
2018-08-19T01:51:04.808Z,1020.44
2018-08-19T01:51:05.407Z,1020.47
2018-08-19T01:51:06.007Z,1020.50
2018-08-19T01:51:06.610Z,1020.44
2018-08-19T01:51:07.207Z,1020.47
2018-08-19T01:52:00.680Z,1020.46
2018-08-19T01:52:01.253Z,1020.44
2018-08-19T01:52:01.919Z,1020.44
2018-08-19T01:52:02.450Z,1020.42
2018-08-19T01:52:03.052Z,1020.43
2018-08-19T01:52:03.649Z,1020.43
2018-08-19T01:52:04.249Z,1020.45
2018-08-19T01:52:04.851Z,1020.42
2018-08-19T01:52:58.330Z,1020.47
2018-08-19T01:52:58.895Z,1020.47
2018-08-19T01:52:59.496Z,1020.48
2018-08-19T01:53:00.096Z,1020.49
2018-08-19T01:53:00.695Z,1020.49
2018-08-19T01:53:01.296Z,1020.49
2018-08-19T01:53:01.894Z,1020.50
2018-08-19T01:53:02.498Z,1020.51
2018-08-19T01:53:56.959Z,1020.46
2018-08-19T01:53:57.532Z,1020.46
2018-08-19T01:53:58.131Z,1020.46
2018-08-19T01:53:58.732Z,1020.48
2018-08-19T01:53:59.333Z,1020.43
2018-08-19T01:53:59.930Z,1020.46
2018-08-19T01:54:00.532Z,1020.44
2018-08-19T01:54:01.130Z,1020.45
2018-08-19T01:54:55.593Z,1020.50
2018-08-19T01:54:56.166Z,1020.46
2018-08-19T01:54:56.764Z,1020.47
2018-08-19T01:54:57.368Z,1020.46
2018-08-19T01:54:57.965Z,1020.45
2018-08-19T01:54:58.567Z,1020.49
2018-08-19T01:54:59.166Z,1020.46
2018-08-19T01:54:59.767Z,1020.45
2018-08-19T01:55:53.239Z,1020.46
2018-08-19T01:55:53.813Z,1020.47
2018-08-19T01:55:54.413Z,1020.45
2018-08-19T01:55:55.013Z,1020.49
2018-08-19T01:55:55.612Z,1020.48
2018-08-19T01:55:56.213Z,1020.49
2018-08-19T01:55:56.811Z,1020.49
2018-08-19T01:55:57.412Z,1020.50
2018-08-19T01:56:50.885Z,1020.46
2018-08-19T01:56:51.461Z,1020.49
2018-08-19T01:56:52.058Z,1020.47
2018-08-19T01:56:52.653Z,1020.50
2018-08-19T01:56:53.253Z,1020.46
2018-08-19T01:56:53.854Z,1020.46
2018-08-19T01:56:54.452Z,1020.48
2018-08-19T01:56:55.053Z,1020.50
2018-08-19T01:57:49.517Z,1020.46
2018-08-19T01:57:50.091Z,1020.42
2018-08-19T01:57:50.691Z,1020.44
2018-08-19T01:57:51.291Z,1020.47
2018-08-19T01:57:51.890Z,1020.44
2018-08-19T01:57:52.490Z,1020.42
2018-08-19T01:57:53.090Z,1020.43
2018-08-19T01:57:53.692Z,1020.41
2018-08-19T01:58:47.163Z,1020.45
2018-08-19T01:58:47.736Z,1020.42
2018-08-19T01:58:48.335Z,1020.45
2018-08-19T01:58:48.936Z,1020.47
2018-08-19T01:58:49.536Z,1020.43
2018-08-19T01:58:50.139Z,1020.40
2018-08-19T01:58:50.735Z,1020.45
2018-08-19T01:58:51.338Z,1020.42
2018-08-19T01:59:45.798Z,1020.44
2018-08-19T01:59:46.376Z,1020.42
2018-08-19T01:59:46.972Z,1020.46
2018-08-19T01:59:47.572Z,1020.45
2018-08-19T01:59:48.171Z,1020.46
2018-08-19T01:59:48.774Z,1020.45
2018-08-19T01:59:49.371Z,1020.46
2018-08-19T01:59:49.973Z,1020.43
2018-08-19T02:00:44.434Z,1020.48
2018-08-19T02:00:45.008Z,1020.47
2018-08-19T02:00:45.610Z,1020.44
2018-08-19T02:00:46.208Z,1020.46
2018-08-19T02:00:46.806Z,1020.47
2018-08-19T02:00:47.406Z,1020.48
2018-08-19T02:00:48.008Z,1020.47
2018-08-19T02:00:48.609Z,1020.47
2018-08-19T02:01:42.080Z,1020.44
2018-08-19T02:01:42.653Z,1020.44
2018-08-19T02:01:43.254Z,1020.42
2018-08-19T02:01:43.854Z,1020.39
2018-08-19T02:01:44.457Z,1020.42
2018-08-19T02:01:45.051Z,1020.47
2018-08-19T02:01:45.651Z,1020.45
2018-08-19T02:01:46.251Z,1020.43
2018-08-19T02:02:39.723Z,1020.44
2018-08-19T02:02:40.298Z,1020.43
2018-08-19T02:02:40.897Z,1020.42
2018-08-19T02:02:41.498Z,1020.43
2018-08-19T02:02:42.098Z,1020.41
2018-08-19T02:02:42.697Z,1020.43
2018-08-19T02:02:43.300Z,1020.43
2018-08-19T02:02:43.898Z,1020.39
2018-08-19T02:03:38.364Z,1020.39
2018-08-19T02:03:38.935Z,1020.36
2018-08-19T02:03:39.537Z,1020.41
2018-08-19T02:03:40.136Z,1020.38
2018-08-19T02:03:40.737Z,1020.40
2018-08-19T02:03:41.336Z,1020.37
2018-08-19T02:03:41.937Z,1020.37
2018-08-19T02:03:42.536Z,1020.37
2018-08-19T02:04:36.010Z,1020.36
2018-08-19T02:04:36.582Z,1020.37
2018-08-19T02:04:37.182Z,1020.37
2018-08-19T02:04:37.782Z,1020.37
2018-08-19T02:04:38.382Z,1020.36
2018-08-19T02:04:38.982Z,1020.38
2018-08-19T02:04:39.582Z,1020.40
2018-08-19T02:04:40.182Z,1020.38
2018-08-19T02:05:34.646Z,1020.42
2018-08-19T02:05:35.217Z,1020.36
2018-08-19T02:05:35.818Z,1020.37
2018-08-19T02:05:36.419Z,1020.35
2018-08-19T02:05:37.018Z,1020.36
2018-08-19T02:05:37.620Z,1020.33
2018-08-19T02:05:38.218Z,1020.37
2018-08-19T02:05:38.817Z,1020.40
2018-08-19T02:06:33.282Z,1020.38
2018-08-19T02:06:33.856Z,1020.34
2018-08-19T02:06:34.455Z,1020.39
2018-08-19T02:06:35.054Z,1020.40
2018-08-19T02:06:35.655Z,1020.41
2018-08-19T02:06:36.255Z,1020.38
2018-08-19T02:06:36.854Z,1020.38
2018-08-19T02:06:37.455Z,1020.40
2018-08-19T02:07:30.935Z,1020.38
2018-08-19T02:07:31.506Z,1020.41
2018-08-19T02:07:32.107Z,1020.38
2018-08-19T02:07:32.707Z,1020.38
2018-08-19T02:07:33.307Z,1020.38
2018-08-19T02:07:33.906Z,1020.40
2018-08-19T02:07:34.507Z,1020.40
2018-08-19T02:07:35.107Z,1020.39
2018-08-19T02:08:29.580Z,1020.39
2018-08-19T02:08:30.150Z,1020.33
2018-08-19T02:08:30.749Z,1020.36
2018-08-19T02:08:31.350Z,1020.39
2018-08-19T02:08:31.951Z,1020.36
2018-08-19T02:08:32.549Z,1020.38
2018-08-19T02:08:33.149Z,1020.38
2018-08-19T02:08:33.749Z,1020.37
2018-08-19T02:09:27.224Z,1020.41
2018-08-19T02:09:27.801Z,1020.39
2018-08-19T02:09:28.398Z,1020.40
2018-08-19T02:09:28.997Z,1020.37
2018-08-19T02:09:29.599Z,1020.37
2018-08-19T02:09:30.197Z,1020.39
2018-08-19T02:09:30.799Z,1020.35
2018-08-19T02:09:31.396Z,1020.37
2018-08-19T02:10:24.874Z,1020.40
2018-08-19T02:10:25.442Z,1020.38
2018-08-19T02:10:26.041Z,1020.38
2018-08-19T02:10:26.640Z,1020.37
2018-08-19T02:10:27.244Z,1020.37
2018-08-19T02:10:27.840Z,1020.38
2018-08-19T02:10:28.440Z,1020.37
2018-08-19T02:10:29.040Z,1020.38
2018-08-19T02:11:22.516Z,1020.38
2018-08-19T02:11:23.086Z,1020.38
2018-08-19T02:11:23.684Z,1020.37
2018-08-19T02:11:24.284Z,1020.42
2018-08-19T02:11:24.885Z,1020.36
2018-08-19T02:11:25.483Z,1020.37
2018-08-19T02:11:26.083Z,1020.40
2018-08-19T02:11:26.684Z,1020.38
2018-08-19T02:12:20.157Z,1020.35
2018-08-19T02:12:20.731Z,1020.35
2018-08-19T02:12:21.330Z,1020.35
2018-08-19T02:12:21.929Z,1020.38
2018-08-19T02:12:22.534Z,1020.38
2018-08-19T02:12:23.131Z,1020.38
2018-08-19T02:12:23.730Z,1020.39
2018-08-19T02:12:24.330Z,1020.37
2018-08-19T02:13:18.795Z,1020.37
2018-08-19T02:13:19.367Z,1020.34
2018-08-19T02:13:19.967Z,1020.32
2018-08-19T02:13:20.567Z,1020.37
2018-08-19T02:13:21.169Z,1020.37
2018-08-19T02:13:21.767Z,1020.35
2018-08-19T02:13:22.368Z,1020.38
2018-08-19T02:13:22.967Z,1020.39
2018-08-19T02:14:17.432Z,1020.34
2018-08-19T02:14:18.005Z,1020.33
2018-08-19T02:14:18.605Z,1020.34
2018-08-19T02:14:19.204Z,1020.34
2018-08-19T02:14:19.806Z,1020.35
2018-08-19T02:14:20.404Z,1020.37
2018-08-19T02:14:21.005Z,1020.37
2018-08-19T02:14:21.605Z,1020.33
2018-08-19T02:15:15.079Z,1020.36
2018-08-19T02:15:15.655Z,1020.34
2018-08-19T02:15:16.253Z,1020.38
2018-08-19T02:15:16.852Z,1020.36
2018-08-19T02:15:17.452Z,1020.37
2018-08-19T02:15:18.054Z,1020.35
2018-08-19T02:15:18.658Z,1020.39
2018-08-19T02:15:19.253Z,1020.37
2018-08-19T02:16:13.718Z,1020.39
2018-08-19T02:16:14.289Z,1020.37
2018-08-19T02:16:14.890Z,1020.33
2018-08-19T02:16:15.489Z,1020.35
2018-08-19T02:16:16.089Z,1020.37
2018-08-19T02:16:16.688Z,1020.38
2018-08-19T02:16:17.292Z,1020.37
2018-08-19T02:16:17.888Z,1020.36
2018-08-19T02:17:11.364Z,1020.35
2018-08-19T02:17:11.934Z,1020.39
2018-08-19T02:17:12.536Z,1020.35
2018-08-19T02:17:13.136Z,1020.34
2018-08-19T02:17:13.737Z,1020.29
2018-08-19T02:17:14.335Z,1020.31
2018-08-19T02:17:14.936Z,1020.34
2018-08-19T02:17:15.536Z,1020.35
2018-08-19T02:18:09.007Z,1020.36
2018-08-19T02:18:09.579Z,1020.37
2018-08-19T02:18:10.184Z,1020.33
2018-08-19T02:18:10.777Z,1020.40
2018-08-19T02:18:11.378Z,1020.36
2018-08-19T02:18:11.978Z,1020.35
2018-08-19T02:18:12.578Z,1020.35
2018-08-19T02:18:13.178Z,1020.38
2018-08-19T02:19:07.644Z,1020.36
2018-08-19T02:19:08.217Z,1020.34
2018-08-19T02:19:08.816Z,1020.36
2018-08-19T02:19:09.417Z,1020.36
2018-08-19T02:19:10.016Z,1020.37
2018-08-19T02:19:10.619Z,1020.35
2018-08-19T02:19:11.216Z,1020.34
2018-08-19T02:19:11.815Z,1020.31
2018-08-19T02:20:05.296Z,1020.40
2018-08-19T02:20:05.865Z,1020.41
2018-08-19T02:20:06.465Z,1020.35
2018-08-19T02:20:07.068Z,1020.36
2018-08-19T02:20:07.666Z,1020.34
2018-08-19T02:20:08.264Z,1020.36
2018-08-19T02:20:08.865Z,1020.36
2018-08-19T02:20:09.464Z,1020.35
2018-08-19T02:21:02.940Z,1020.39
2018-08-19T02:21:03.512Z,1020.36
2018-08-19T02:21:04.112Z,1020.41
2018-08-19T02:21:04.712Z,1020.37
2018-08-19T02:21:05.311Z,1020.40
2018-08-19T02:21:05.917Z,1020.37
2018-08-19T02:21:06.512Z,1020.39
2018-08-19T02:21:07.110Z,1020.40
2018-08-19T02:22:00.590Z,1020.36
2018-08-19T02:22:01.160Z,1020.35
2018-08-19T02:22:01.761Z,1020.33
2018-08-19T02:22:02.359Z,1020.38
2018-08-19T02:22:02.960Z,1020.37
2018-08-19T02:22:03.559Z,1020.41
2018-08-19T02:22:04.160Z,1020.37
2018-08-19T02:22:04.759Z,1020.36
2018-08-19T02:22:58.235Z,1020.36
2018-08-19T02:22:58.805Z,1020.38
2018-08-19T02:22:59.406Z,1020.41
2018-08-19T02:23:00.006Z,1020.38
2018-08-19T02:23:00.608Z,1020.37
2018-08-19T02:23:01.212Z,1020.36
2018-08-19T02:23:01.805Z,1020.35
2018-08-19T02:23:02.405Z,1020.37
2018-08-19T02:23:56.870Z,1020.33
2018-08-19T02:23:57.443Z,1020.33
2018-08-19T02:23:58.043Z,1020.36
2018-08-19T02:23:58.643Z,1020.35
2018-08-19T02:23:59.243Z,1020.34
2018-08-19T02:23:59.844Z,1020.36
2018-08-19T02:24:00.442Z,1020.36
2018-08-19T02:24:01.049Z,1020.37
2018-08-19T02:24:55.506Z,1020.35
2018-08-19T02:24:56.081Z,1020.35
2018-08-19T02:24:56.679Z,1020.35
2018-08-19T02:24:57.279Z,1020.34
2018-08-19T02:24:57.881Z,1020.35
2018-08-19T02:24:58.479Z,1020.34
2018-08-19T02:24:59.080Z,1020.34
2018-08-19T02:24:59.685Z,1020.35
2018-08-19T02:25:53.153Z,1020.32
2018-08-19T02:25:53.726Z,1020.31
2018-08-19T02:25:54.326Z,1020.31
2018-08-19T02:25:54.925Z,1020.33
2018-08-19T02:25:55.526Z,1020.34
2018-08-19T02:25:56.126Z,1020.32
2018-08-19T02:25:56.725Z,1020.35
2018-08-19T02:25:57.326Z,1020.34
2018-08-19T02:26:51.789Z,1020.32
2018-08-19T02:26:52.366Z,1020.29
2018-08-19T02:26:52.962Z,1020.30
2018-08-19T02:26:53.564Z,1020.30
2018-08-19T02:26:54.164Z,1020.33
2018-08-19T02:26:54.780Z,1020.35
2018-08-19T02:26:55.362Z,1020.31
2018-08-19T02:26:55.966Z,1020.31
2018-08-19T02:27:49.440Z,1020.29
2018-08-19T02:27:50.010Z,1020.34
2018-08-19T02:27:50.609Z,1020.31
2018-08-19T02:27:51.209Z,1020.29
2018-08-19T02:27:51.816Z,1020.33
2018-08-19T02:27:52.409Z,1020.34
2018-08-19T02:27:53.010Z,1020.28
2018-08-19T02:27:53.610Z,1020.32
2018-08-19T02:28:47.084Z,1020.33
2018-08-19T02:28:47.656Z,1020.30
2018-08-19T02:28:48.255Z,1020.32
2018-08-19T02:28:48.855Z,1020.30
2018-08-19T02:28:49.456Z,1020.32
2018-08-19T02:28:50.055Z,1020.31
2018-08-19T02:28:50.654Z,1020.32
2018-08-19T02:28:51.255Z,1020.32
2018-08-19T02:29:44.728Z,1020.34
2018-08-19T02:29:45.302Z,1020.33
2018-08-19T02:29:45.901Z,1020.31
2018-08-19T02:29:46.500Z,1020.35
2018-08-19T02:29:47.102Z,1020.32
2018-08-19T02:29:47.703Z,1020.33
2018-08-19T02:29:48.301Z,1020.35
2018-08-19T02:29:48.901Z,1020.32
2018-08-19T02:30:43.367Z,1020.34
2018-08-19T02:30:43.940Z,1020.35
2018-08-19T02:30:44.538Z,1020.37
2018-08-19T02:30:45.139Z,1020.34
2018-08-19T02:30:45.739Z,1020.35
2018-08-19T02:30:46.338Z,1020.32
2018-08-19T02:30:46.940Z,1020.35
2018-08-19T02:30:47.540Z,1020.36
2018-08-19T02:31:42.004Z,1020.35
2018-08-19T02:31:42.577Z,1020.40
2018-08-19T02:31:43.177Z,1020.38
2018-08-19T02:31:43.776Z,1020.36
2018-08-19T02:31:44.376Z,1020.36
2018-08-19T02:31:44.976Z,1020.36
2018-08-19T02:31:45.580Z,1020.38
2018-08-19T02:31:46.176Z,1020.37
2018-08-19T02:32:40.641Z,1020.38
2018-08-19T02:32:41.214Z,1020.36
2018-08-19T02:32:41.815Z,1020.34
2018-08-19T02:32:42.414Z,1020.36
2018-08-19T02:32:43.014Z,1020.36
2018-08-19T02:32:43.614Z,1020.38
2018-08-19T02:32:44.214Z,1020.39
2018-08-19T02:32:44.814Z,1020.37
2018-08-19T02:33:38.288Z,1020.33
2018-08-19T02:33:38.859Z,1020.33
2018-08-19T02:33:39.460Z,1020.31
2018-08-19T02:33:40.059Z,1020.33
2018-08-19T02:33:40.661Z,1020.37
2018-08-19T02:33:41.260Z,1020.34
2018-08-19T02:33:41.864Z,1020.36
2018-08-19T02:33:42.459Z,1020.36
2018-08-19T02:34:36.927Z,1020.34
2018-08-19T02:34:37.498Z,1020.34
2018-08-19T02:34:38.098Z,1020.32
2018-08-19T02:34:38.698Z,1020.34
2018-08-19T02:34:39.300Z,1020.35
2018-08-19T02:34:39.899Z,1020.35
2018-08-19T02:34:40.499Z,1020.34
2018-08-19T02:34:41.096Z,1020.39
2018-08-19T02:35:35.562Z,1020.30
2018-08-19T02:35:36.137Z,1020.34
2018-08-19T02:35:36.735Z,1020.35
2018-08-19T02:35:37.336Z,1020.33
2018-08-19T02:35:37.949Z,1020.35
2018-08-19T02:35:38.535Z,1020.35
2018-08-19T02:35:39.138Z,1020.34
2018-08-19T02:35:39.735Z,1020.37
2018-08-19T02:36:34.199Z,1020.35
2018-08-19T02:36:34.776Z,1020.35
2018-08-19T02:36:35.371Z,1020.33
2018-08-19T02:36:35.970Z,1020.37
2018-08-19T02:36:36.571Z,1020.34
2018-08-19T02:36:37.173Z,1020.35
2018-08-19T02:36:37.775Z,1020.35
2018-08-19T02:36:38.372Z,1020.32
2018-08-19T02:37:31.846Z,1020.36
2018-08-19T02:37:32.419Z,1020.34
2018-08-19T02:37:33.019Z,1020.32
2018-08-19T02:37:33.619Z,1020.34
2018-08-19T02:37:34.219Z,1020.34
2018-08-19T02:37:34.820Z,1020.33
2018-08-19T02:37:35.420Z,1020.34
2018-08-19T02:37:36.019Z,1020.33
2018-08-19T02:38:30.483Z,1020.36
2018-08-19T02:38:31.056Z,1020.36
2018-08-19T02:38:31.658Z,1020.35
2018-08-19T02:38:32.257Z,1020.33
2018-08-19T02:38:32.857Z,1020.31
2018-08-19T02:38:33.455Z,1020.35
2018-08-19T02:38:34.057Z,1020.33
2018-08-19T02:38:34.657Z,1020.37
2018-08-19T02:39:28.136Z,1020.31
2018-08-19T02:39:28.701Z,1020.35
2018-08-19T02:39:29.302Z,1020.31
2018-08-19T02:39:29.901Z,1020.31
2018-08-19T02:39:30.512Z,1020.32
2018-08-19T02:39:31.101Z,1020.32
2018-08-19T02:39:31.703Z,1020.34
2018-08-19T02:39:32.301Z,1020.32
2018-08-19T02:40:25.773Z,1020.31
2018-08-19T02:40:26.347Z,1020.29
2018-08-19T02:40:26.945Z,1020.30
2018-08-19T02:40:27.549Z,1020.33
2018-08-19T02:40:28.144Z,1020.29
2018-08-19T02:40:28.744Z,1020.31
2018-08-19T02:40:29.346Z,1020.33
2018-08-19T02:40:29.944Z,1020.29
2018-08-19T02:41:24.409Z,1020.32
2018-08-19T02:41:24.983Z,1020.30
2018-08-19T02:41:25.582Z,1020.30
2018-08-19T02:41:26.182Z,1020.32
2018-08-19T02:41:26.781Z,1020.31
2018-08-19T02:41:27.381Z,1020.33
2018-08-19T02:41:27.981Z,1020.31
2018-08-19T02:41:28.582Z,1020.32
2018-08-19T02:42:22.056Z,1020.30
2018-08-19T02:42:22.628Z,1020.29
2018-08-19T02:42:23.228Z,1020.29
2018-08-19T02:42:23.830Z,1020.32
2018-08-19T02:42:24.432Z,1020.33
2018-08-19T02:42:25.031Z,1020.34
2018-08-19T02:42:25.628Z,1020.31
2018-08-19T02:42:26.233Z,1020.32
2018-08-19T02:43:19.701Z,1020.32
2018-08-19T02:43:20.275Z,1020.30
2018-08-19T02:43:20.875Z,1020.30
2018-08-19T02:43:21.476Z,1020.30
2018-08-19T02:43:22.074Z,1020.33
2018-08-19T02:43:22.676Z,1020.31
2018-08-19T02:43:23.275Z,1020.30
2018-08-19T02:43:23.878Z,1020.30
2018-08-19T02:44:17.347Z,1020.28
2018-08-19T02:44:17.922Z,1020.24
2018-08-19T02:44:18.521Z,1020.26
2018-08-19T02:44:19.122Z,1020.24
2018-08-19T02:44:19.721Z,1020.27
2018-08-19T02:44:20.321Z,1020.27
2018-08-19T02:44:20.921Z,1020.27
2018-08-19T02:44:21.523Z,1020.27
2018-08-19T02:45:14.993Z,1020.25
2018-08-19T02:45:15.568Z,1020.25
2018-08-19T02:45:16.167Z,1020.24
2018-08-19T02:45:16.767Z,1020.28
2018-08-19T02:45:17.368Z,1020.27
2018-08-19T02:45:17.968Z,1020.27
2018-08-19T02:45:18.567Z,1020.29
2018-08-19T02:45:19.170Z,1020.29
2018-08-19T02:46:12.641Z,1020.30
2018-08-19T02:46:13.215Z,1020.29
2018-08-19T02:46:13.817Z,1020.31
2018-08-19T02:46:14.423Z,1020.33
2018-08-19T02:46:15.015Z,1020.30
2018-08-19T02:46:15.613Z,1020.28
2018-08-19T02:46:16.214Z,1020.30
2018-08-19T02:46:16.813Z,1020.28
2018-08-19T02:47:11.279Z,1020.28
2018-08-19T02:47:11.851Z,1020.31
2018-08-19T02:47:12.451Z,1020.31
2018-08-19T02:47:13.052Z,1020.32
2018-08-19T02:47:13.652Z,1020.29
2018-08-19T02:47:14.251Z,1020.31
2018-08-19T02:47:14.850Z,1020.33
2018-08-19T02:47:15.453Z,1020.30
2018-08-19T02:48:09.917Z,1020.27
2018-08-19T02:48:10.489Z,1020.26
2018-08-19T02:48:11.089Z,1020.29
2018-08-19T02:48:11.688Z,1020.31
2018-08-19T02:48:12.288Z,1020.27
2018-08-19T02:48:12.887Z,1020.27
2018-08-19T02:48:13.489Z,1020.27
2018-08-19T02:48:14.088Z,1020.27
2018-08-19T02:49:07.566Z,1020.29
2018-08-19T02:49:08.139Z,1020.29
2018-08-19T02:49:08.737Z,1020.27
2018-08-19T02:49:09.337Z,1020.28
2018-08-19T02:49:09.937Z,1020.26
2018-08-19T02:49:10.538Z,1020.29
2018-08-19T02:49:11.137Z,1020.32
2018-08-19T02:49:11.738Z,1020.29
2018-08-19T02:50:05.212Z,1020.28
2018-08-19T02:50:05.784Z,1020.29
2018-08-19T02:50:06.384Z,1020.26
2018-08-19T02:50:06.985Z,1020.29
2018-08-19T02:50:07.583Z,1020.27
2018-08-19T02:50:08.183Z,1020.28
2018-08-19T02:50:08.788Z,1020.28
2018-08-19T02:50:09.383Z,1020.28
2018-08-19T02:51:03.849Z,1020.26
2018-08-19T02:51:04.420Z,1020.28
2018-08-19T02:51:05.022Z,1020.24
2018-08-19T02:51:05.621Z,1020.27
2018-08-19T02:51:06.223Z,1020.26
2018-08-19T02:51:06.821Z,1020.27
2018-08-19T02:51:07.426Z,1020.27
2018-08-19T02:51:08.021Z,1020.25
2018-08-19T02:52:02.485Z,1020.31
2018-08-19T02:52:03.060Z,1020.27
2018-08-19T02:52:03.659Z,1020.29
2018-08-19T02:52:04.260Z,1020.31
2018-08-19T02:52:04.857Z,1020.31
2018-08-19T02:52:05.458Z,1020.29
2018-08-19T02:52:06.059Z,1020.31
2018-08-19T02:52:06.665Z,1020.30
2018-08-19T02:53:00.133Z,1020.31
2018-08-19T02:53:00.705Z,1020.30
2018-08-19T02:53:01.306Z,1020.28
2018-08-19T02:53:01.923Z,1020.28
2018-08-19T02:53:02.581Z,1020.29
2018-08-19T02:53:03.104Z,1020.31
2018-08-19T02:53:03.703Z,1020.29
2018-08-19T02:53:04.306Z,1020.28
2018-08-19T02:53:57.778Z,1020.29
2018-08-19T02:53:58.350Z,1020.32
2018-08-19T02:53:58.952Z,1020.32
2018-08-19T02:53:59.549Z,1020.30
2018-08-19T02:54:00.149Z,1020.28
2018-08-19T02:54:00.751Z,1020.28
2018-08-19T02:54:01.349Z,1020.31
2018-08-19T02:54:01.949Z,1020.27
2018-08-19T02:54:56.415Z,1020.29
2018-08-19T02:54:56.988Z,1020.25
2018-08-19T02:54:57.587Z,1020.27
2018-08-19T02:54:58.189Z,1020.28
2018-08-19T02:54:58.788Z,1020.27
2018-08-19T02:54:59.387Z,1020.26
2018-08-19T02:54:59.986Z,1020.31
2018-08-19T02:55:00.598Z,1020.31
2018-08-19T02:55:55.052Z,1020.28
2018-08-19T02:55:55.625Z,1020.29
2018-08-19T02:55:56.223Z,1020.25
2018-08-19T02:55:56.824Z,1020.27
2018-08-19T02:55:57.424Z,1020.29
2018-08-19T02:55:58.024Z,1020.27
2018-08-19T02:55:58.624Z,1020.26
2018-08-19T02:55:59.224Z,1020.29
2018-08-19T02:56:53.689Z,1020.27
2018-08-19T02:56:54.261Z,1020.22
2018-08-19T02:56:54.861Z,1020.26
2018-08-19T02:56:55.464Z,1020.23
2018-08-19T02:56:56.061Z,1020.25
2018-08-19T02:56:56.662Z,1020.30
2018-08-19T02:56:57.263Z,1020.23
2018-08-19T02:56:57.860Z,1020.24
2018-08-19T02:57:51.335Z,1020.22
2018-08-19T02:57:51.907Z,1020.18
2018-08-19T02:57:52.508Z,1020.16
2018-08-19T02:57:53.117Z,1020.19
2018-08-19T02:57:53.708Z,1020.21
2018-08-19T02:57:54.307Z,1020.19
2018-08-19T02:57:54.909Z,1020.19
2018-08-19T02:57:55.515Z,1020.20
2018-08-19T02:58:49.977Z,1020.20
2018-08-19T02:58:50.544Z,1020.19
2018-08-19T02:58:51.144Z,1020.16
2018-08-19T02:58:51.744Z,1020.21
2018-08-19T02:58:52.343Z,1020.20
2018-08-19T02:58:52.943Z,1020.20
2018-08-19T02:58:53.546Z,1020.18
2018-08-19T02:58:54.144Z,1020.16